createdAt,value
2019-06-01T00:00:53.029Z,0.00
2019-06-01T00:01:53.024Z,0.00
2019-06-01T00:02:56.329Z,0.00
2019-06-01T00:03:53.021Z,0.00
2019-06-01T00:04:53.022Z,0.00
2019-06-01T00:05:53.019Z,0.00
2019-06-01T00:06:53.018Z,0.00
2019-06-01T00:07:53.018Z,0.00
2019-06-01T00:08:53.017Z,0.00
2019-06-01T00:09:53.026Z,0.00
2019-06-01T00:10:53.014Z,0.00
2019-06-01T00:11:53.014Z,0.00
2019-06-01T00:12:53.014Z,0.00
2019-06-01T00:13:53.014Z,0.00
2019-06-01T00:14:53.016Z,0.00
2019-06-01T00:15:53.014Z,0.00
2019-06-01T00:16:53.010Z,0.00
2019-06-01T00:17:53.012Z,0.00
2019-06-01T00:18:53.010Z,0.00
2019-06-01T00:19:53.010Z,0.00
2019-06-01T00:20:53.010Z,0.00
2019-06-01T00:21:54.240Z,0.00
2019-06-01T00:22:53.004Z,0.00
2019-06-01T00:23:53.007Z,0.00
2019-06-01T00:24:53.005Z,0.00
2019-06-01T00:25:53.006Z,0.00
2019-06-01T00:26:53.003Z,0.00
2019-06-01T00:27:53.002Z,0.00
2019-06-01T00:28:53.108Z,0.00
2019-06-01T00:29:53.148Z,0.00
2019-06-01T00:30:53.000Z,0.00
2019-06-01T00:31:53.005Z,0.00
2019-06-01T00:32:52.998Z,0.00
2019-06-01T00:33:52.995Z,0.00
2019-06-01T00:34:52.994Z,0.00
2019-06-01T00:35:52.998Z,0.00
2019-06-01T00:36:52.994Z,0.00
2019-06-01T00:37:52.992Z,0.00
2019-06-01T00:38:52.993Z,0.00
2019-06-01T00:39:52.991Z,0.00
2019-06-01T00:40:52.993Z,0.00
2019-06-01T00:41:52.991Z,0.00
2019-06-01T00:42:52.985Z,0.00
2019-06-01T00:43:52.991Z,0.00
2019-06-01T00:44:52.988Z,0.00
2019-06-01T00:45:53.204Z,0.00
2019-06-01T00:46:52.983Z,0.00
2019-06-01T00:47:53.080Z,0.00
2019-06-01T00:48:54.216Z,0.00
2019-06-01T00:49:53.166Z,0.00
2019-06-01T00:50:53.301Z,0.00
2019-06-01T00:51:53.755Z,0.00
2019-06-01T00:52:53.407Z,0.00
2019-06-01T00:53:53.577Z,0.00
2019-06-01T00:54:53.627Z,0.00
2019-06-01T00:55:53.642Z,0.00
2019-06-01T00:56:53.881Z,0.00
2019-06-01T00:57:53.943Z,0.00
2019-06-01T00:58:53.932Z,0.00
2019-06-01T00:59:54.927Z,0.00
2019-06-01T01:00:53.764Z,0.00
2019-06-01T01:01:54.145Z,0.00
2019-06-01T01:02:54.307Z,0.00
2019-06-01T01:03:54.337Z,0.00
2019-06-01T01:04:52.978Z,0.00
2019-06-01T01:05:52.975Z,0.00
2019-06-01T01:06:52.970Z,0.00
2019-06-01T01:07:53.503Z,0.00
2019-06-01T01:08:53.055Z,0.00
2019-06-01T01:09:52.967Z,0.00
2019-06-01T01:10:53.111Z,0.00
2019-06-01T01:11:53.317Z,0.00
2019-06-01T01:12:53.197Z,0.00
2019-06-01T01:13:53.559Z,0.00
2019-06-01T01:14:53.352Z,0.00
2019-06-01T01:15:53.502Z,0.00
2019-06-01T01:16:54.151Z,0.00
2019-06-01T01:17:53.948Z,0.00
2019-06-01T01:18:53.836Z,0.00
2019-06-01T01:19:53.997Z,0.00
2019-06-01T01:20:54.064Z,0.00
2019-06-01T01:21:54.056Z,0.00
2019-06-01T01:22:54.292Z,0.00
2019-06-01T01:23:53.260Z,0.00
2019-06-01T01:24:52.952Z,0.00
2019-06-01T01:25:52.952Z,0.00
2019-06-01T01:26:52.947Z,0.00
2019-06-01T01:27:52.947Z,0.00
2019-06-01T01:28:53.051Z,0.00
2019-06-01T01:29:53.199Z,0.00
2019-06-01T01:31:08.356Z,0.00
2019-06-01T01:31:53.218Z,0.00
2019-06-01T01:32:53.574Z,0.00
2019-06-01T01:33:53.431Z,0.00
2019-06-01T01:34:53.739Z,0.00
2019-06-01T01:35:54.109Z,0.00
2019-06-01T01:36:54.234Z,0.00
2019-06-01T01:37:53.894Z,0.00
2019-06-01T01:38:54.252Z,0.00
2019-06-01T01:39:54.171Z,0.00
2019-06-01T01:40:54.114Z,0.00
2019-06-01T01:41:54.163Z,0.00
2019-06-01T01:42:52.930Z,0.00
2019-06-01T01:43:52.932Z,0.00
2019-06-01T01:44:52.927Z,0.00
2019-06-01T01:45:52.929Z,0.00
2019-06-01T01:46:52.924Z,0.00
2019-06-01T01:47:52.930Z,0.00
2019-06-01T01:48:54.067Z,0.00
2019-06-01T01:49:53.818Z,0.00
2019-06-01T01:50:52.923Z,0.00
2019-06-01T01:51:52.942Z,0.00
2019-06-01T01:52:52.918Z,0.00
2019-06-01T01:53:53.069Z,0.00
2019-06-01T01:54:52.919Z,0.00
2019-06-01T01:55:53.021Z,0.00
2019-06-01T01:56:54.048Z,0.00
2019-06-01T01:57:53.282Z,0.00
2019-06-01T01:58:54.222Z,0.00
2019-06-01T01:59:53.362Z,0.00
2019-06-01T02:00:54.539Z,0.00
2019-06-01T02:01:52.910Z,0.00
2019-06-01T02:02:54.006Z,0.00
2019-06-01T02:03:53.739Z,0.00
2019-06-01T02:04:53.684Z,0.00
2019-06-01T02:05:53.022Z,0.00
2019-06-01T02:06:53.922Z,4.00
2019-06-01T02:07:53.000Z,4.00
2019-06-01T02:08:53.525Z,4.00
2019-06-01T02:09:53.231Z,0.00
2019-06-01T02:10:53.325Z,0.00
2019-06-01T02:11:53.423Z,4.00
2019-06-01T02:12:53.426Z,4.00
2019-06-01T02:13:53.640Z,4.00
2019-06-01T02:14:53.680Z,0.00
2019-06-01T02:15:54.108Z,4.00
2019-06-01T02:16:53.955Z,4.00
2019-06-01T02:17:53.926Z,4.00
2019-06-01T02:18:54.317Z,4.00
2019-06-01T02:19:54.074Z,4.00
2019-06-01T02:20:54.250Z,8.00
2019-06-01T02:21:52.887Z,8.00
2019-06-01T02:22:53.074Z,8.00
2019-06-01T02:23:52.992Z,8.00
2019-06-01T02:24:53.774Z,12.00
2019-06-01T02:25:52.977Z,12.00
2019-06-01T02:26:53.134Z,12.00
2019-06-01T02:27:53.146Z,16.00
2019-06-01T02:28:53.212Z,16.00
2019-06-01T02:29:53.129Z,20.00
2019-06-01T02:30:53.947Z,20.00
2019-06-01T02:31:52.877Z,24.00
2019-06-01T02:32:53.854Z,28.00
2019-06-01T02:33:53.764Z,32.00
2019-06-01T02:34:54.284Z,36.00
2019-06-01T02:35:54.379Z,40.00
2019-06-01T02:36:54.302Z,44.00
2019-06-01T02:37:54.518Z,48.00
2019-06-01T02:38:54.510Z,56.00
2019-06-01T02:39:54.212Z,64.00
2019-06-01T02:40:54.747Z,64.00
2019-06-01T02:41:54.760Z,72.00
2019-06-01T02:42:52.862Z,80.00
2019-06-01T02:43:52.857Z,84.00
2019-06-01T02:44:52.859Z,92.00
2019-06-01T02:45:52.864Z,100.00
2019-06-01T02:46:52.853Z,104.00
2019-06-01T02:47:52.855Z,108.00
2019-06-01T02:48:52.855Z,116.00
2019-06-01T02:49:52.850Z,124.00
2019-06-01T02:50:52.847Z,128.00
2019-06-01T02:51:52.847Z,140.00
2019-06-01T02:52:52.848Z,148.00
2019-06-01T02:53:52.845Z,156.00
2019-06-01T02:54:52.842Z,164.00
2019-06-01T02:55:52.842Z,176.00
2019-06-01T02:56:52.842Z,180.00
2019-06-01T02:57:52.833Z,192.00
2019-06-01T02:58:52.839Z,204.00
2019-06-01T02:59:52.836Z,220.00
2019-06-01T03:00:52.837Z,228.00
2019-06-01T03:01:57.257Z,240.00
2019-06-01T03:02:52.834Z,252.00
2019-06-01T03:03:52.830Z,268.00
2019-06-01T03:04:52.833Z,284.00
2019-06-01T03:05:52.830Z,296.00
2019-06-01T03:06:52.827Z,308.00
2019-06-01T03:07:52.827Z,324.00
2019-06-01T03:08:52.825Z,336.00
2019-06-01T03:09:52.825Z,356.00
2019-06-01T03:10:52.822Z,372.00
2019-06-01T03:11:52.822Z,392.00
2019-06-01T03:12:52.823Z,412.00
2019-06-01T03:13:52.825Z,432.00
2019-06-01T03:14:52.824Z,456.00
2019-06-01T03:15:52.813Z,476.00
2019-06-01T03:16:52.815Z,500.00
2019-06-01T03:17:52.838Z,528.00
2019-06-01T03:18:52.822Z,548.00
2019-06-01T03:19:52.815Z,572.00
2019-06-01T03:20:52.811Z,600.00
2019-06-01T03:21:52.809Z,624.00
2019-06-01T03:22:52.808Z,644.00
2019-06-01T03:23:52.804Z,672.00
2019-06-01T03:24:52.804Z,696.00
2019-06-01T03:25:52.803Z,720.00
2019-06-01T03:26:52.803Z,748.00
2019-06-01T03:27:52.804Z,776.00
2019-06-01T03:28:52.797Z,808.00
2019-06-01T03:29:52.799Z,840.00
2019-06-01T03:30:52.803Z,880.00
2019-06-01T03:31:52.796Z,904.00
2019-06-01T03:32:52.795Z,924.00
2019-06-01T03:33:52.798Z,952.00
2019-06-01T03:34:52.792Z,992.00
2019-06-01T03:35:52.791Z,1032.00
2019-06-01T03:36:56.022Z,1072.00
2019-06-01T03:37:52.791Z,1120.00
2019-06-01T03:38:52.786Z,1176.00
2019-06-01T03:39:52.785Z,1224.00
2019-06-01T03:40:52.787Z,1260.00
2019-06-01T03:41:52.790Z,1296.00
2019-06-01T03:42:52.783Z,1344.00
2019-06-01T03:43:52.783Z,1384.00
2019-06-01T03:44:52.783Z,1424.00
2019-06-01T03:45:52.781Z,1460.00
2019-06-01T03:46:52.781Z,1496.00
2019-06-01T03:47:52.778Z,1532.00
2019-06-01T03:48:52.779Z,1600.00
2019-06-01T03:49:52.775Z,1672.00
2019-06-01T03:50:52.774Z,1708.00
2019-06-01T03:51:52.773Z,1776.00
2019-06-01T03:52:52.771Z,1940.00
2019-06-01T03:53:52.769Z,2080.00
2019-06-01T03:54:52.772Z,2140.00
2019-06-01T03:55:52.769Z,2260.00
2019-06-01T03:56:52.770Z,2416.00
2019-06-01T03:57:52.769Z,2524.00
2019-06-01T03:58:52.767Z,2484.00
2019-06-01T03:59:52.763Z,2528.00
2019-06-01T04:00:52.847Z,2572.00
2019-06-01T04:01:52.765Z,2708.00
2019-06-01T04:02:52.762Z,2852.00
2019-06-01T04:03:52.760Z,2912.00
2019-06-01T04:04:52.760Z,2912.00
2019-06-01T04:05:52.759Z,2932.00
2019-06-01T04:06:52.777Z,2988.00
2019-06-01T04:07:52.761Z,3044.00
2019-06-01T04:08:52.765Z,3048.00
2019-06-01T04:09:52.754Z,3140.00
2019-06-01T04:10:52.757Z,3308.00
2019-06-01T04:11:52.752Z,3384.00
2019-06-01T04:12:52.756Z,3240.00
2019-06-01T04:13:52.757Z,3228.00
2019-06-01T04:14:52.763Z,3308.00
2019-06-01T04:15:52.756Z,3368.00
2019-06-01T04:16:52.764Z,3504.00
2019-06-01T04:17:52.757Z,3496.00
2019-06-01T04:18:52.752Z,3576.00
2019-06-01T04:19:52.756Z,3608.00
2019-06-01T04:20:52.759Z,3832.00
2019-06-01T04:21:52.764Z,4152.00
2019-06-01T04:22:52.764Z,4064.00
2019-06-01T04:23:52.756Z,4260.00
2019-06-01T04:24:52.761Z,4424.00
2019-06-01T04:25:52.764Z,4464.00
2019-06-01T04:26:52.752Z,4644.00
2019-06-01T04:27:52.754Z,4868.00
2019-06-01T04:28:52.751Z,4892.00
2019-06-01T04:29:52.762Z,4852.00
2019-06-01T04:30:52.761Z,5236.00
2019-06-01T04:31:52.750Z,5500.00
2019-06-01T04:32:52.755Z,5316.00
2019-06-01T04:33:52.755Z,5552.00
2019-06-01T04:34:52.751Z,5656.00
2019-06-01T04:35:52.759Z,5756.00
2019-06-01T04:36:52.756Z,5856.00
2019-06-01T04:37:52.764Z,5872.00
2019-06-01T04:38:52.761Z,5920.00
2019-06-01T04:39:52.758Z,5916.00
2019-06-01T04:40:52.763Z,6076.00
2019-06-01T04:41:52.761Z,6136.00
2019-06-01T04:42:52.763Z,5968.00
2019-06-01T04:43:52.768Z,6036.00
2019-06-01T04:44:52.765Z,6368.00
2019-06-01T04:45:52.765Z,6608.00
2019-06-01T04:46:52.767Z,6688.00
2019-06-01T04:47:52.771Z,6868.00
2019-06-01T04:48:52.772Z,7100.00
2019-06-01T04:49:52.768Z,7264.00
2019-06-01T04:50:52.769Z,7428.00
2019-06-01T04:51:52.771Z,7540.00
2019-06-01T04:52:52.776Z,7648.00
2019-06-01T04:53:52.778Z,7744.00
2019-06-01T04:54:52.777Z,7816.00
2019-06-01T04:55:52.776Z,7908.00
2019-06-01T04:56:52.781Z,8020.00
2019-06-01T04:57:52.781Z,8180.00
2019-06-01T04:58:52.785Z,8356.00
2019-06-01T04:59:52.786Z,8392.00
2019-06-01T05:00:52.787Z,8140.00
2019-06-01T05:01:52.789Z,8756.00
2019-06-01T05:03:04.908Z,8708.00
2019-06-01T05:03:52.793Z,8720.00
2019-06-01T05:04:52.800Z,8600.00
2019-06-01T05:05:52.801Z,8676.00
2019-06-01T05:06:52.800Z,8860.00
2019-06-01T05:07:52.806Z,8948.00
2019-06-01T05:08:52.818Z,8816.00
2019-06-01T05:09:52.812Z,8752.00
2019-06-01T05:10:52.814Z,8920.00
2019-06-01T05:11:52.816Z,10008.00
2019-06-01T05:12:52.819Z,10752.00
2019-06-01T05:13:52.821Z,10476.00
2019-06-01T05:14:52.825Z,10852.00
2019-06-01T05:15:52.832Z,10744.00
2019-06-01T05:16:52.834Z,10548.00
2019-06-01T05:17:52.835Z,9468.00
2019-06-01T05:18:52.840Z,9748.00
2019-06-01T05:19:52.843Z,8964.00
2019-06-01T05:20:52.844Z,8344.00
2019-06-01T05:21:52.853Z,7748.00
2019-06-01T05:22:52.852Z,7036.00
2019-06-01T05:23:52.866Z,6652.00
2019-06-01T05:24:52.861Z,7008.00
2019-06-01T05:25:53.423Z,6900.00
2019-06-01T05:26:52.867Z,6532.00
2019-06-01T05:27:52.872Z,6556.00
2019-06-01T05:28:52.875Z,6208.00
2019-06-01T05:29:52.879Z,6068.00
2019-06-01T05:30:52.881Z,5924.00
2019-06-01T05:31:52.886Z,5560.00
2019-06-01T05:32:52.890Z,5436.00
2019-06-01T05:33:52.898Z,5520.00
2019-06-01T05:34:52.895Z,5524.00
2019-06-01T05:35:52.893Z,5392.00
2019-06-01T05:36:52.903Z,5332.00
2019-06-01T05:37:52.905Z,5376.00
2019-06-01T05:38:52.912Z,5580.00
2019-06-01T05:39:52.913Z,5708.00
2019-06-01T05:40:52.918Z,5888.00
2019-06-01T05:41:52.917Z,5992.00
2019-06-01T05:42:52.922Z,6168.00
2019-06-01T05:43:52.925Z,6336.00
2019-06-01T05:44:52.928Z,6152.00
2019-06-01T05:45:52.929Z,6416.00
2019-06-01T05:46:52.932Z,6500.00
2019-06-01T05:47:52.938Z,6384.00
2019-06-01T05:48:52.946Z,6928.00
2019-06-01T05:49:52.945Z,6940.00
2019-06-01T05:50:52.948Z,6860.00
2019-06-01T05:51:52.946Z,6360.00
2019-06-01T05:52:52.950Z,5892.00
2019-06-01T05:53:52.950Z,5860.00
2019-06-01T05:54:52.961Z,5868.00
2019-06-01T05:55:52.960Z,5768.00
2019-06-01T05:56:52.960Z,6236.00
2019-06-01T05:57:52.964Z,6692.00
2019-06-01T05:58:52.965Z,7308.00
2019-06-01T05:59:52.968Z,7396.00
2019-06-01T06:00:52.971Z,7176.00
2019-06-01T06:01:52.974Z,6192.00
2019-06-01T06:02:52.976Z,5764.00
2019-06-01T06:03:52.977Z,5952.00
2019-06-01T06:04:54.191Z,6156.00
2019-06-01T06:05:52.984Z,7492.00
2019-06-01T06:06:52.987Z,8040.00
2019-06-01T06:07:52.990Z,7540.00
2019-06-01T06:08:52.992Z,7092.00
2019-06-01T06:09:52.994Z,6672.00
2019-06-01T06:10:52.996Z,6628.00
2019-06-01T06:11:53.975Z,6452.00
2019-06-01T06:12:53.001Z,5308.00
2019-06-01T06:13:53.005Z,5428.00
2019-06-01T06:14:53.005Z,6236.00
2019-06-01T06:15:53.008Z,6112.00
2019-06-01T06:16:53.009Z,5636.00
2019-06-01T06:17:53.017Z,8392.00
2019-06-01T06:18:53.015Z,6328.00
2019-06-01T06:19:53.018Z,6960.00
2019-06-01T06:20:53.024Z,7664.00
2019-06-01T06:21:53.033Z,7776.00
2019-06-01T06:22:53.028Z,7796.00
2019-06-01T06:23:53.025Z,8296.00
2019-06-01T06:24:53.028Z,9464.00
2019-06-01T06:25:53.031Z,9016.00
2019-06-01T06:26:53.035Z,11536.00
2019-06-01T06:27:53.035Z,34720.00
2019-06-01T06:28:53.039Z,35936.00
2019-06-01T06:29:53.043Z,32032.00
2019-06-01T06:30:53.044Z,20864.00
2019-06-01T06:31:53.049Z,16384.00
2019-06-01T06:32:53.055Z,44640.00
2019-06-01T06:33:56.494Z,41728.00
2019-06-01T06:34:53.066Z,28832.00
2019-06-01T06:35:53.059Z,28416.00
2019-06-01T06:36:53.063Z,21664.00
2019-06-01T06:37:53.069Z,17056.00
2019-06-01T06:38:53.071Z,37952.00
2019-06-01T06:39:53.078Z,37440.00
2019-06-01T06:40:53.079Z,41280.00
2019-06-01T06:41:53.086Z,40608.00
2019-06-01T06:42:53.089Z,46464.00
2019-06-01T06:43:53.091Z,43584.00
2019-06-01T06:44:53.103Z,44768.00
2019-06-01T06:45:53.107Z,42656.00
2019-06-01T06:46:53.106Z,42816.00
2019-06-01T06:47:53.110Z,42880.00
2019-06-01T06:48:53.115Z,12952.00
2019-06-01T06:49:53.130Z,10152.00
2019-06-01T06:50:53.136Z,13100.00
2019-06-01T06:51:53.133Z,28096.00
2019-06-01T06:52:53.138Z,28896.00
2019-06-01T06:53:53.144Z,47936.00
2019-06-01T06:54:53.158Z,42208.00
2019-06-01T06:55:53.155Z,36928.00
2019-06-01T06:56:53.162Z,38880.00
2019-06-01T06:57:53.168Z,39104.00
2019-06-01T06:58:53.179Z,14464.00
2019-06-01T06:59:53.179Z,31136.00
2019-06-01T07:00:53.187Z,46336.00
2019-06-01T07:01:53.200Z,39872.00
2019-06-01T07:02:53.197Z,38688.00
2019-06-01T07:03:53.214Z,52896.00
2019-06-01T07:04:53.210Z,51616.00
2019-06-01T07:05:53.226Z,48960.00
2019-06-01T07:06:53.223Z,50464.00
2019-06-01T07:07:53.230Z,50688.00
2019-06-01T07:08:53.237Z,34912.00
2019-06-01T07:09:53.265Z,50176.00
2019-06-01T07:10:53.252Z,51712.00
2019-06-01T07:11:53.318Z,51296.00
2019-06-01T07:12:53.264Z,44288.00
2019-06-01T07:13:53.285Z,42496.00
2019-06-01T07:14:53.277Z,42304.00
2019-06-01T07:15:53.285Z,43904.00
2019-06-01T07:16:53.293Z,51936.00
2019-06-01T07:17:53.307Z,55264.00
2019-06-01T07:18:53.307Z,44352.00
2019-06-01T07:19:53.327Z,48992.00
2019-06-01T07:20:53.335Z,46272.00
2019-06-01T07:21:53.331Z,53184.00
2019-06-01T07:22:53.335Z,54496.00
2019-06-01T07:23:53.370Z,56320.00
2019-06-01T07:24:53.369Z,57920.00
2019-06-01T07:25:53.374Z,53664.00
2019-06-01T07:26:53.372Z,55552.00
2019-06-01T07:27:53.383Z,54240.00
2019-06-01T07:28:53.385Z,50016.00
2019-06-01T07:29:53.393Z,51616.00
2019-06-01T07:30:53.399Z,50432.00
2019-06-01T07:31:53.407Z,52768.00
2019-06-01T07:32:53.415Z,55136.00
2019-06-01T07:33:53.425Z,24544.00
2019-06-01T07:34:53.431Z,55808.00
2019-06-01T07:35:53.439Z,39936.00
2019-06-01T07:36:53.460Z,38976.00
2019-06-01T07:37:53.458Z,32768.00
2019-06-01T07:38:53.467Z,53696.00
2019-06-01T07:39:53.472Z,56352.00
2019-06-01T07:40:53.484Z,57248.00
2019-06-01T07:41:53.502Z,51360.00
2019-06-01T07:42:53.503Z,45472.00
2019-06-01T07:43:53.508Z,45664.00
2019-06-01T07:44:53.517Z,52288.00
2019-06-01T07:45:53.525Z,48128.00
2019-06-01T07:46:53.534Z,18144.00
2019-06-01T07:47:53.545Z,56064.00
2019-06-01T07:48:53.552Z,51328.00
2019-06-01T07:49:53.565Z,54368.00
2019-06-01T07:50:53.568Z,63808.00
2019-06-01T07:51:53.630Z,47808.00
2019-06-01T07:52:53.585Z,60064.00
2019-06-01T07:53:53.592Z,55840.00
2019-06-01T07:54:53.599Z,50592.00
2019-06-01T07:55:53.610Z,53056.00
2019-06-01T07:56:53.616Z,54112.00
2019-06-01T07:57:53.625Z,61376.00
2019-06-01T07:58:53.633Z,64928.00
2019-06-01T07:59:53.659Z,64512.00
2019-06-01T08:00:53.652Z,64960.00
2019-06-01T08:01:53.661Z,66720.00
2019-06-01T08:02:53.667Z,64096.00
2019-06-01T08:03:53.680Z,68576.00
2019-06-01T08:04:54.809Z,71136.00
2019-06-01T08:05:53.694Z,52544.00
2019-06-01T08:06:53.707Z,66368.00
2019-06-01T08:07:53.714Z,61312.00
2019-06-01T08:08:53.721Z,49344.00
2019-06-01T08:09:53.735Z,56672.00
2019-06-01T08:10:53.743Z,43424.00
2019-06-01T08:11:53.754Z,60192.00
2019-06-01T08:12:53.759Z,61984.00
2019-06-01T08:13:53.769Z,64576.00
2019-06-01T08:14:53.782Z,61440.00
2019-06-01T08:15:53.785Z,58784.00
2019-06-01T08:16:53.792Z,55936.00
2019-06-01T08:17:53.802Z,52768.00
2019-06-01T08:18:53.810Z,57216.00
2019-06-01T08:19:53.818Z,60736.00
2019-06-01T08:20:53.825Z,62656.00
2019-06-01T08:21:53.909Z,41728.00
2019-06-01T08:22:53.842Z,62560.00
2019-06-01T08:23:53.855Z,63488.00
2019-06-01T08:24:53.863Z,60864.00
2019-06-01T08:25:53.874Z,46752.00
2019-06-01T08:26:53.884Z,54816.00
2019-06-01T08:27:53.906Z,52736.00
2019-06-01T08:28:53.902Z,58496.00
2019-06-01T08:29:53.913Z,52224.00
2019-06-01T08:30:53.921Z,60416.00
2019-06-01T08:31:55.937Z,60192.00
2019-06-01T08:32:53.936Z,62848.00
2019-06-01T08:33:53.945Z,68128.00
2019-06-01T08:35:07.194Z,58592.00
2019-06-01T08:35:53.963Z,53376.00
2019-06-01T08:36:53.972Z,63584.00
2019-06-01T08:37:53.981Z,75232.00
2019-06-01T08:38:53.991Z,65568.00
2019-06-01T08:39:53.998Z,55712.00
2019-06-01T08:40:54.009Z,50144.00
2019-06-01T08:41:54.019Z,48832.00
2019-06-01T08:42:54.059Z,49088.00
2019-06-01T08:43:54.045Z,52384.00
2019-06-01T08:44:54.045Z,53568.00
2019-06-01T08:45:54.057Z,55904.00
2019-06-01T08:46:54.066Z,62176.00
2019-06-01T08:47:54.073Z,67872.00
2019-06-01T08:48:54.082Z,54816.00
2019-06-01T08:49:54.096Z,37632.00
2019-06-01T08:50:54.101Z,45184.00
2019-06-01T08:51:54.113Z,52000.00
2019-06-01T08:52:54.122Z,57376.00
2019-06-01T08:53:54.132Z,33280.00
2019-06-01T08:54:54.130Z,13508.00
2019-06-01T08:55:54.143Z,11976.00
2019-06-01T08:56:54.153Z,11976.00
2019-06-01T08:57:54.171Z,12884.00
2019-06-01T08:58:54.174Z,12884.00
2019-06-01T08:59:54.181Z,12648.00
2019-06-01T09:00:54.190Z,11328.00
2019-06-01T09:01:54.200Z,10716.00
2019-06-01T09:02:54.210Z,9564.00
2019-06-01T09:03:54.218Z,9224.00
2019-06-01T09:04:54.234Z,8924.00
2019-06-01T09:05:54.235Z,8548.00
2019-06-01T09:06:54.243Z,8464.00
2019-06-01T09:07:54.256Z,8596.00
2019-06-01T09:08:54.265Z,8612.00
2019-06-01T09:09:54.265Z,8768.00
2019-06-01T09:10:54.281Z,8776.00
2019-06-01T09:11:54.281Z,8672.00
2019-06-01T09:12:54.298Z,8568.00
2019-06-01T09:13:54.298Z,8748.00
2019-06-01T09:14:54.301Z,8776.00
2019-06-01T09:15:54.355Z,8540.00
2019-06-01T09:16:54.313Z,9440.00
2019-06-01T09:17:54.330Z,9860.00
2019-06-01T09:18:54.336Z,11028.00
2019-06-01T09:19:54.332Z,10568.00
2019-06-01T09:20:54.339Z,10148.00
2019-06-01T09:21:54.348Z,9492.00
2019-06-01T09:22:54.351Z,9576.00
2019-06-01T09:23:54.357Z,9004.00
2019-06-01T09:24:54.370Z,8836.00
2019-06-01T09:25:54.371Z,8968.00
2019-06-01T09:26:54.373Z,8824.00
2019-06-01T09:27:54.382Z,11172.00
2019-06-01T09:28:54.387Z,9900.00
2019-06-01T09:29:54.392Z,10304.00
2019-06-01T09:30:54.399Z,10084.00
2019-06-01T09:31:54.403Z,10388.00
2019-06-01T09:32:54.411Z,10160.00
2019-06-01T09:33:54.416Z,9740.00
2019-06-01T09:34:54.419Z,9244.00
2019-06-01T09:35:56.329Z,9688.00
2019-06-01T09:36:55.672Z,9228.00
2019-06-01T09:37:54.439Z,9188.00
2019-06-01T09:38:54.442Z,9784.00
2019-06-01T09:39:54.442Z,9328.00
2019-06-01T09:40:54.449Z,9288.00
2019-06-01T09:41:54.454Z,9080.00
2019-06-01T09:42:54.461Z,9536.00
2019-06-01T09:43:54.467Z,10352.00
2019-06-01T09:44:54.468Z,10296.00
2019-06-01T09:45:54.473Z,10320.00
2019-06-01T09:46:54.477Z,11036.00
2019-06-01T09:47:54.486Z,11524.00
2019-06-01T09:48:54.487Z,10748.00
2019-06-01T09:49:54.494Z,11356.00
2019-06-01T09:50:54.495Z,10200.00
2019-06-01T09:51:54.505Z,10160.00
2019-06-01T09:52:54.507Z,10168.00
2019-06-01T09:53:54.515Z,10432.00
2019-06-01T09:54:54.523Z,10328.00
2019-06-01T09:55:54.522Z,9584.00
2019-06-01T09:56:54.529Z,8168.00
2019-06-01T09:57:54.533Z,8228.00
2019-06-01T09:58:54.533Z,10656.00
2019-06-01T09:59:54.539Z,8120.00
2019-06-01T10:00:54.612Z,7612.00
2019-06-01T10:01:54.549Z,8376.00
2019-06-01T10:02:54.553Z,8716.00
2019-06-01T10:03:54.560Z,8308.00
2019-06-01T10:04:54.564Z,8504.00
2019-06-01T10:06:01.964Z,8788.00
2019-06-01T10:06:54.573Z,9160.00
2019-06-01T10:07:54.575Z,8612.00
2019-06-01T10:08:54.581Z,7040.00
2019-06-01T10:09:54.587Z,6788.00
2019-06-01T10:10:54.591Z,7044.00
2019-06-01T10:11:54.596Z,6696.00
2019-06-01T10:12:54.602Z,6892.00
2019-06-01T10:13:54.605Z,8080.00
2019-06-01T10:14:54.608Z,8044.00
2019-06-01T10:15:54.613Z,7436.00
2019-06-01T10:16:54.629Z,7372.00
2019-06-01T10:17:54.620Z,6856.00
2019-06-01T10:18:54.629Z,6864.00
2019-06-01T10:19:54.631Z,7120.00
2019-06-01T10:20:54.635Z,6920.00
2019-06-01T10:21:54.640Z,6440.00
2019-06-01T10:22:54.646Z,6592.00
2019-06-01T10:23:54.661Z,6640.00
2019-06-01T10:24:54.653Z,6920.00
2019-06-01T10:25:54.662Z,6268.00
2019-06-01T10:26:54.662Z,5724.00
2019-06-01T10:27:54.669Z,5044.00
2019-06-01T10:28:54.671Z,5188.00
2019-06-01T10:29:54.680Z,6088.00
2019-06-01T10:30:54.681Z,6056.00
2019-06-01T10:31:54.685Z,6288.00
2019-06-01T10:32:54.696Z,6432.00
2019-06-01T10:33:54.695Z,5956.00
2019-06-01T10:34:54.703Z,6188.00
2019-06-01T10:35:54.702Z,6168.00
2019-06-01T10:36:54.707Z,6064.00
2019-06-01T10:37:54.711Z,6232.00
2019-06-01T10:38:54.718Z,6280.00
2019-06-01T10:39:54.720Z,7748.00
2019-06-01T10:40:54.727Z,6500.00
2019-06-01T10:41:54.734Z,5932.00
2019-06-01T10:42:54.740Z,5880.00
2019-06-01T10:43:54.737Z,5716.00
2019-06-01T10:44:54.752Z,5528.00
2019-06-01T10:45:54.748Z,5100.00
2019-06-01T10:46:54.750Z,5000.00
2019-06-01T10:47:54.755Z,4968.00
2019-06-01T10:48:54.765Z,5448.00
2019-06-01T10:49:54.764Z,5660.00
2019-06-01T10:50:54.768Z,6284.00
2019-06-01T10:51:54.770Z,7500.00
2019-06-01T10:52:54.777Z,8368.00
2019-06-01T10:53:54.782Z,6436.00
2019-06-01T10:54:54.785Z,5040.00
2019-06-01T10:55:54.788Z,4988.00
2019-06-01T10:56:54.793Z,5160.00
2019-06-01T10:57:54.803Z,5228.00
2019-06-01T10:58:59.998Z,5404.00
2019-06-01T10:59:54.809Z,5084.00
2019-06-01T11:00:54.814Z,5016.00
2019-06-01T11:01:54.817Z,4716.00
2019-06-01T11:02:54.823Z,4748.00
2019-06-01T11:03:54.824Z,5344.00
2019-06-01T11:04:54.829Z,4960.00
2019-06-01T11:05:54.834Z,4548.00
2019-06-01T11:06:54.837Z,4356.00
2019-06-01T11:07:54.844Z,4388.00
2019-06-01T11:08:54.852Z,4516.00
2019-06-01T11:09:54.853Z,5164.00
2019-06-01T11:10:54.862Z,5980.00
2019-06-01T11:11:54.858Z,6176.00
2019-06-01T11:12:54.864Z,6672.00
2019-06-01T11:13:54.871Z,6592.00
2019-06-01T11:14:54.874Z,5768.00
2019-06-01T11:15:54.877Z,4896.00
2019-06-01T11:16:56.519Z,4436.00
2019-06-01T11:17:54.884Z,4320.00
2019-06-01T11:18:54.887Z,4216.00
2019-06-01T11:19:54.895Z,4472.00
2019-06-01T11:20:54.899Z,4788.00
2019-06-01T11:21:54.901Z,5180.00
2019-06-01T11:22:54.904Z,5960.00
2019-06-01T11:23:54.910Z,6000.00
2019-06-01T11:24:54.918Z,6340.00
2019-06-01T11:25:54.920Z,5824.00
2019-06-01T11:26:54.923Z,4868.00
2019-06-01T11:27:54.928Z,4792.00
2019-06-01T11:28:54.936Z,5612.00
2019-06-01T11:29:54.938Z,5844.00
2019-06-01T11:30:54.940Z,5144.00
2019-06-01T11:31:54.950Z,4992.00
2019-06-01T11:32:54.950Z,4156.00
2019-06-01T11:33:54.959Z,3784.00
2019-06-01T11:34:54.960Z,3676.00
2019-06-01T11:35:54.965Z,4168.00
2019-06-01T11:37:04.979Z,4420.00
2019-06-01T11:37:54.976Z,3892.00
2019-06-01T11:38:54.981Z,3740.00
2019-06-01T11:39:54.980Z,3984.00
2019-06-01T11:40:55.004Z,4176.00
2019-06-01T11:41:54.995Z,4112.00
2019-06-01T11:42:54.996Z,4064.00
2019-06-01T11:43:55.000Z,3992.00
2019-06-01T11:44:55.006Z,3984.00
2019-06-01T11:45:55.007Z,3912.00
2019-06-01T11:46:55.013Z,3844.00
2019-06-01T11:47:55.019Z,3520.00
2019-06-01T11:48:55.031Z,3404.00
2019-06-01T11:49:55.025Z,3352.00
2019-06-01T11:50:55.030Z,3348.00
2019-06-01T11:51:55.035Z,3328.00
2019-06-01T11:52:55.041Z,3252.00
2019-06-01T11:53:55.042Z,3236.00
2019-06-01T11:54:55.048Z,3212.00
2019-06-01T11:55:55.054Z,3408.00
2019-06-01T11:56:55.058Z,3752.00
2019-06-01T11:57:55.062Z,4156.00
2019-06-01T11:58:55.065Z,4164.00
2019-06-01T11:59:55.070Z,3980.00
2019-06-01T12:00:55.074Z,3552.00
2019-06-01T12:01:55.078Z,3500.00
2019-06-01T12:02:55.085Z,3456.00
2019-06-01T12:03:55.088Z,3392.00
2019-06-01T12:04:55.097Z,3320.00
2019-06-01T12:05:55.099Z,3244.00
2019-06-01T12:06:55.103Z,3188.00
2019-06-01T12:07:55.113Z,3204.00
2019-06-01T12:08:55.116Z,3160.00
2019-06-01T12:09:55.114Z,3112.00
2019-06-01T12:10:55.120Z,3112.00
2019-06-01T12:11:55.123Z,3128.00
2019-06-01T12:12:55.129Z,3216.00
2019-06-01T12:13:55.137Z,3148.00
2019-06-01T12:14:55.139Z,3092.00
2019-06-01T12:15:55.141Z,3088.00
2019-06-01T12:16:55.145Z,3140.00